createdAt,value
2019-03-28T00:03:21.304Z,5.79
2019-03-28T00:08:30.453Z,5.53
2019-03-28T00:13:40.091Z,5.41
2019-03-28T00:18:49.633Z,5.66
2019-03-28T00:23:58.683Z,5.48
2019-03-28T00:29:07.801Z,6.44
2019-03-28T00:34:16.860Z,6.48
2019-03-28T00:39:25.973Z,6.76
2019-03-28T00:44:35.013Z,6.09
2019-03-28T00:49:44.134Z,6.28
2019-03-28T00:54:53.191Z,7.22
2019-03-28T01:00:02.370Z,5.92
2019-03-28T01:05:11.558Z,6.13
2019-03-28T01:10:20.686Z,6.14
2019-03-28T01:15:28.448Z,5.44
2019-03-28T01:20:37.621Z,5.04
2019-03-28T01:25:46.678Z,5.55
2019-03-28T01:30:55.890Z,5.03
2019-03-28T01:36:04.972Z,4.56
2019-03-28T01:41:14.161Z,4.19
2019-03-28T01:46:23.248Z,4.73
2019-03-28T01:51:32.370Z,4.97
2019-03-28T01:56:42.207Z,4.96
2019-03-28T02:01:51.325Z,5.41
2019-03-28T02:07:00.386Z,5.27
2019-03-28T02:12:09.569Z,5.20
2019-03-28T02:17:18.639Z,5.18
2019-03-28T02:22:27.777Z,5.39
2019-03-28T02:27:36.832Z,5.37
2019-03-28T02:32:45.967Z,5.10
2019-03-28T02:37:55.019Z,5.47
2019-03-28T02:43:04.162Z,5.06
2019-03-28T02:48:13.233Z,4.84
2019-03-28T02:53:22.390Z,5.27
2019-03-28T02:58:31.462Z,4.63
2019-03-28T03:03:40.638Z,4.81
2019-03-28T03:08:49.682Z,5.33
2019-03-28T03:13:58.814Z,4.75
2019-03-28T03:19:07.818Z,4.69
2019-03-28T03:24:16.949Z,4.71
2019-03-28T03:29:25.998Z,4.70
2019-03-28T03:34:35.124Z,5.60
2019-03-28T03:39:44.563Z,4.60
2019-03-28T03:44:53.887Z,4.68
2019-03-28T03:50:02.979Z,5.05
2019-03-28T03:55:12.086Z,5.72
2019-03-28T04:00:21.170Z,5.11
2019-03-28T04:05:30.315Z,4.82
2019-03-28T04:10:39.314Z,5.11
2019-03-28T04:15:48.981Z,5.22
2019-03-28T04:20:58.002Z,4.68
2019-03-28T04:26:07.136Z,4.94
2019-03-28T04:31:16.184Z,4.28
2019-03-28T04:36:25.385Z,4.35
2019-03-28T04:41:34.434Z,3.60
2019-03-28T04:46:43.583Z,3.84
2019-03-28T04:51:53.385Z,3.72
2019-03-28T04:57:01.292Z,3.76
2019-03-28T05:02:10.307Z,4.08
2019-03-28T05:07:19.501Z,4.64
2019-03-28T05:12:28.583Z,3.87
2019-03-28T05:17:37.699Z,4.30
2019-03-28T05:22:46.767Z,4.62
2019-03-28T05:27:55.997Z,4.23
2019-03-28T05:33:05.079Z,4.64
2019-03-28T05:38:14.212Z,4.84
2019-03-28T05:43:23.261Z,4.21
2019-03-28T05:48:32.369Z,4.43
2019-03-28T05:53:43.879Z,4.04
2019-03-28T05:58:50.858Z,3.36
2019-03-28T06:03:59.885Z,3.37
2019-03-28T06:09:09.061Z,3.15
2019-03-28T06:14:18.132Z,3.77
2019-03-28T06:19:27.310Z,3.34
2019-03-28T06:24:36.401Z,2.95
2019-03-28T06:29:45.610Z,3.52
2019-03-28T06:34:54.705Z,3.21
2019-03-28T06:40:03.843Z,4.08
2019-03-28T06:45:12.853Z,4.18
2019-03-28T06:50:21.978Z,4.20
2019-03-28T06:55:31.050Z,4.56
2019-03-28T07:00:40.177Z,4.41
2019-03-28T07:05:49.350Z,4.90
2019-03-28T07:10:58.523Z,4.62
2019-03-28T07:16:07.578Z,4.53
2019-03-28T07:21:16.964Z,4.39
2019-03-28T07:26:26.312Z,4.99
2019-03-28T07:31:35.643Z,4.47
2019-03-28T07:36:43.276Z,5.05
2019-03-28T07:41:52.447Z,4.82
2019-03-28T07:47:01.498Z,4.79
2019-03-28T07:52:10.645Z,4.88
2019-03-28T07:57:19.736Z,4.94
2019-03-28T08:02:28.875Z,4.74
2019-03-28T08:07:44.755Z,4.92
2019-03-28T08:12:46.730Z,5.06
2019-03-28T08:17:55.869Z,4.92
2019-03-28T08:23:05.349Z,5.06
2019-03-28T08:28:14.452Z,5.03
2019-03-28T08:33:23.582Z,5.53
2019-03-28T08:38:32.897Z,4.99
2019-03-28T08:43:41.349Z,5.56
2019-03-28T08:48:50.410Z,4.54
2019-03-28T08:53:59.519Z,5.53
2019-03-28T08:59:08.557Z,4.57
2019-03-28T09:04:17.670Z,4.73
2019-03-28T09:09:26.756Z,4.35
2019-03-28T09:14:35.919Z,5.18
2019-03-28T09:19:44.962Z,4.84
2019-03-28T09:24:54.581Z,5.08
2019-03-28T09:30:03.648Z,4.58
2019-03-28T09:35:12.768Z,4.59
2019-03-28T09:40:21.917Z,5.25
2019-03-28T09:45:31.214Z,4.44
2019-03-28T09:50:40.282Z,5.07
2019-03-28T09:55:49.354Z,4.34
2019-03-28T10:01:03.013Z,4.64
2019-03-28T10:06:07.006Z,4.23
2019-03-28T10:11:16.062Z,4.85
2019-03-28T10:16:25.230Z,4.35
2019-03-28T10:21:37.293Z,5.17
2019-03-28T10:26:42.893Z,4.41
2019-03-28T10:31:51.933Z,5.02
2019-03-28T10:37:01.064Z,4.62
2019-03-28T10:42:10.174Z,4.41
2019-03-28T10:47:19.305Z,4.51
2019-03-28T10:52:28.396Z,4.15
2019-03-28T10:57:37.483Z,3.99
2019-03-28T11:02:46.795Z,3.61
2019-03-28T11:07:55.866Z,3.72
2019-03-28T11:13:09.186Z,3.49
2019-03-28T11:18:14.732Z,3.70
2019-03-28T11:23:23.790Z,3.69
2019-03-28T11:28:32.930Z,3.71
2019-03-28T11:33:41.993Z,4.03
2019-03-28T11:38:51.163Z,3.53
2019-03-28T11:44:00.341Z,3.35
2019-03-28T11:49:09.486Z,3.21
2019-03-28T11:54:18.569Z,3.00
2019-03-28T11:59:27.682Z,2.89
2019-03-28T12:04:38.755Z,3.17
2019-03-28T12:09:45.369Z,2.83
2019-03-28T12:14:54.447Z,2.56
2019-03-28T12:20:03.680Z,3.69
2019-03-28T12:25:12.734Z,3.09
2019-03-28T12:30:21.942Z,3.23
2019-03-28T12:35:30.990Z,3.12
2019-03-28T12:40:40.051Z,3.81
2019-03-28T12:45:49.070Z,3.88
2019-03-28T12:50:59.313Z,3.58
2019-03-28T12:56:07.469Z,3.26
2019-03-28T13:01:16.598Z,4.09
2019-03-28T13:06:25.769Z,3.01
2019-03-28T13:11:34.898Z,3.71
2019-03-28T13:16:43.950Z,3.23
2019-03-28T13:21:53.755Z,3.26
2019-03-28T13:27:02.830Z,3.72
2019-03-28T13:32:11.960Z,3.09
2019-03-28T13:37:21.129Z,3.53
2019-03-28T13:42:30.409Z,3.21
2019-03-28T13:47:39.479Z,3.14
2019-03-28T13:52:48.590Z,3.40
2019-03-28T13:57:57.610Z,3.56
2019-03-28T14:03:06.822Z,3.79
2019-03-28T14:08:15.870Z,3.01
2019-03-28T14:13:24.999Z,3.23
2019-03-28T14:18:34.074Z,3.42
2019-03-28T14:23:43.276Z,2.64
2019-03-28T14:28:52.342Z,4.01
2019-03-28T14:34:02.624Z,3.44
2019-03-28T14:39:10.078Z,3.42
2019-03-28T14:44:23.068Z,3.34
2019-03-28T14:49:22.100Z,3.47
2019-03-28T14:54:31.224Z,3.42
2019-03-28T14:59:40.282Z,3.37
2019-03-28T15:04:49.627Z,3.61
2019-03-28T15:09:58.711Z,3.17
2019-03-28T15:15:07.830Z,3.20
2019-03-28T15:20:16.892Z,3.44
2019-03-28T15:25:26.011Z,2.83
2019-03-28T15:30:35.110Z,3.12
2019-03-28T15:35:44.234Z,3.45
2019-03-28T15:40:53.309Z,2.80
2019-03-28T15:46:02.457Z,3.32
2019-03-28T15:51:11.830Z,3.65
2019-03-28T15:56:20.198Z,3.60
2019-03-28T16:01:29.251Z,4.18
2019-03-28T16:06:38.374Z,4.09
2019-03-28T16:11:47.541Z,4.09
2019-03-28T16:16:56.753Z,3.52
2019-03-28T16:22:06.125Z,3.51
2019-03-28T16:27:15.538Z,3.79
2019-03-28T16:32:24.652Z,3.85
2019-03-28T16:37:33.761Z,4.15
2019-03-28T16:42:42.813Z,4.24
2019-03-28T16:47:51.998Z,4.22
2019-03-28T16:53:01.063Z,3.77
2019-03-28T16:58:10.173Z,4.29
2019-03-28T17:03:19.234Z,4.03
2019-03-28T17:08:28.381Z,4.41
2019-03-28T17:13:37.386Z,4.76
2019-03-28T17:18:46.587Z,4.26
2019-03-28T17:23:55.674Z,3.95
2019-03-28T17:29:04.878Z,3.52
2019-03-28T17:34:13.977Z,3.66
2019-03-28T17:39:23.641Z,4.40
2019-03-28T17:44:33.860Z,3.53
2019-03-28T17:49:41.327Z,3.55
2019-03-28T17:54:50.396Z,4.28
2019-03-28T18:00:00.501Z,3.87
2019-03-28T18:05:09.123Z,4.26
2019-03-28T18:10:08.273Z,3.92
2019-03-28T18:15:17.449Z,4.18
2019-03-28T18:20:26.569Z,4.47
2019-03-28T18:25:35.662Z,4.10
2019-03-28T18:30:45.830Z,3.89
2019-03-28T18:35:53.598Z,4.37
2019-03-28T18:41:02.766Z,4.18
2019-03-28T18:46:14.586Z,4.58
2019-03-28T18:51:20.473Z,3.99
2019-03-28T18:56:29.528Z,4.41
2019-03-28T19:01:38.730Z,4.54
2019-03-28T19:06:47.797Z,4.35
2019-03-28T19:11:57.302Z,4.12
2019-03-28T19:17:06.371Z,3.64
2019-03-28T19:22:15.077Z,4.50
2019-03-28T19:27:24.160Z,4.69
2019-03-28T19:32:33.270Z,4.49
2019-03-28T19:37:42.323Z,5.40
2019-03-28T19:42:51.619Z,4.59
2019-03-28T19:48:00.962Z,4.14
2019-03-28T19:53:11.826Z,4.84
2019-03-28T19:58:18.651Z,4.82
2019-03-28T20:03:28.242Z,4.63
2019-03-28T20:08:36.470Z,5.33
2019-03-28T20:13:44.074Z,4.39
2019-03-28T20:18:53.159Z,5.18
2019-03-28T20:24:02.654Z,5.21
2019-03-28T20:29:11.758Z,4.48
2019-03-28T20:34:20.858Z,4.47
2019-03-28T20:39:29.909Z,4.56
2019-03-28T20:44:39.036Z,4.34
2019-03-28T20:49:48.087Z,5.53
2019-03-28T20:54:57.262Z,4.13
2019-03-28T21:00:08.524Z,4.68
2019-03-28T21:05:14.975Z,4.62
2019-03-28T21:10:24.039Z,4.79
2019-03-28T21:15:33.171Z,4.66
2019-03-28T21:20:42.199Z,4.57
2019-03-28T21:25:51.350Z,4.27
2019-03-28T21:31:00.417Z,4.93
2019-03-28T21:36:09.542Z,5.16
2019-03-28T21:41:19.909Z,4.68
2019-03-28T21:46:27.269Z,5.11
2019-03-28T21:51:36.369Z,5.12
2019-03-28T21:56:45.522Z,4.55
2019-03-28T22:01:54.575Z,5.10
2019-03-28T22:07:04.438Z,4.91
2019-03-28T22:12:13.485Z,5.18
2019-03-28T22:17:22.608Z,5.01
2019-03-28T22:22:31.647Z,4.06
2019-03-28T22:27:40.814Z,4.61
2019-03-28T22:32:50.063Z,4.84
2019-03-28T22:37:58.490Z,4.99
2019-03-28T22:43:09.588Z,5.52
2019-03-28T22:48:11.200Z,4.33
2019-03-28T22:53:17.321Z,4.16
2019-03-28T22:58:26.517Z,3.99
2019-03-28T23:03:35.627Z,4.37
2019-03-28T23:08:45.199Z,4.15
2019-03-28T23:13:54.257Z,5.02
2019-03-28T23:19:03.498Z,4.46
2019-03-28T23:24:11.270Z,5.12
2019-03-28T23:29:20.659Z,4.53
2019-03-28T23:34:29.708Z,4.61
2019-03-28T23:39:38.824Z,4.29
2019-03-28T23:44:47.845Z,5.01
2019-03-28T23:49:57.009Z,5.04
2019-03-28T23:55:06.615Z,4.12
